Date,TemperatureHighF,TemperatureAvgF,TemperatureLowF,DewpointHighF,DewpointAvgF,DewpointLowF,HumidityHigh,HumidityAvg,HumidityLow,PressureMaxIn,PressureMinIn,WindSpeedMaxMPH,WindSpeedAvgMPH,GustSpeedMaxMPH,PrecipitationSumIn
2013-5-1,89,74,65,67,63,58,91,71,37,29.93,29.76,15,4,15,0.00
2013-5-2,68,53,44,61,47,35,89,78,66,30.31,29.90,30,11,30,0.02
2013-5-3,66,53,40,44,31,22,76,47,20,30.28,30.01,31,9,31,0.00
2013-5-4,73,60,46,39,33,21,69,41,16,30.01,29.87,26,6,26,0.00
2013-5-5,67,57,46,47,42,38,73,59,44,30.13,30.01,22,6,22,0.00
2013-5-6,81,65,52,56,50,46,83,60,31,30.10,29.97,12,2,12,0.00
2013-5-7,86,72,59,57,53,47,79,54,27,30.05,29.90,9,2,9,0.00
2013-5-8,82,72,64,62,57,53,76,60,41,29.97,29.83,23,7,23,0.00
2013-5-9,72,69,68,67,66,60,94,90,66,29.90,29.82,17,1,17,0.11
2013-5-10,83,71,65,67,63,57,95,78,50,30.01,29.84,15,2,15,0.01
2013-5-11,79,71,61,59,52,42,82,54,28,30.14,29.98,24,5,24,0.00
2013-5-12,79,69,57,55,41,31,67,39,19,30.24,30.11,19,4,19,0.00
2013-5-13,86,72,59,57,49,44,69,47,25,30.22,30.08,21,6,21,0.00
2013-5-14,84,74,62,63,57,48,87,58,36,30.13,29.95,21,8,21,0.00
2013-5-15,76,71,63,68,66,61,94,85,70,30.01,29.75,27,10,27,0.17
2013-5-16,78,70,63,70,66,60,95,87,75,29.81,29.71,25,6,25,0.01
2013-5-17,90,79,72,74,71,69,95,78,58,29.82,29.74,21,5,21,0.00
2013-5-18,88,80,72,72,70,67,87,73,54,29.86,29.72,22,9,22,0.00
2013-5-19,88,79,71,71,69,66,87,72,52,29.80,29.63,30,13,30,0.00
2013-5-20,86,80,74,71,70,67,83,72,59,29.78,29.61,27,12,27,0.00
2013-5-21,83,72,62,72,67,60,96,83,66,29.84,29.61,35,8,35,0.05
2013-5-22,88,72,58,64,60,46,96,71,27,29.92,29.81,9,1,9,0.01
2013-5-23,92,79,71,72,70,64,94,75,49,30.03,29.85,15,3,15,0.00
2013-5-24,87,79,69,76,70,63,91,76,59,30.16,29.96,30,2,30,0.07
2013-5-25,83,73,68,72,68,63,93,85,63,30.14,30.01,40,4,40,0.04
2013-5-26,86,78,72,72,70,67,93,78,58,30.05,29.89,21,9,21,0.01
2013-5-27,85,79,72,71,69,67,89,73,56,29.95,29.75,25,11,25,0.00
2013-5-28,85,79,72,71,68,65,87,70,51,29.85,29.72,34,12,34,0.00
2013-5-29,82,77,72,72,70,66,88,79,67,29.80,29.67,36,12,36,0.06
2013-5-30,87,80,75,73,71,69,88,76,61,29.75,29.65,33,13,33,0.00
2013-5-31,89,82,77,73,72,70,85,73,56,29.80,29.62,32,13,32,0.00